sensor_id;sensor_type;location;lat;lon;timestamp;pressure;altitude;pressure_sealevel;temperature;humidity
1726;BME280;41776;48.260;8.928;2023-02-11T00:00:38;52610.75;;;-145.69;100.00
1726;BME280;41776;48.260;8.928;2023-02-11T00:03:04;52666.19;;;-145.69;100.00
1726;BME280;41776;48.260;8.928;2023-02-11T00:05:31;52606.78;;;-145.69;100.00
1726;BME280;41776;48.260;8.928;2023-02-11T00:07:57;52630.53;;;-145.69;100.00
1726;BME280;41776;48.260;8.928;2023-02-11T00:10:24;52628.56;;;-145.69;100.00
1726;BME280;41776;48.260;8.928;2023-02-11T00:12:51;52618.66;;;-145.69;100.00
1726;BME280;41776;48.260;8.928;2023-02-11T00:15:18;52646.41;;;-145.69;100.00
1726;BME280;41776;48.260;8.928;2023-02-11T00:17:47;52644.41;;;-145.69;100.00
1726;BME280;41776;48.260;8.928;2023-02-11T00:20:14;52648.38;;;-145.69;100.00
1726;BME280;41776;48.260;8.928;2023-02-11T00:22:40;52638.47;;;-145.69;100.00
1726;BME280;41776;48.260;8.928;2023-02-11T00:25:07;52656.28;;;-145.69;100.00
1726;BME280;41776;48.260;8.928;2023-02-11T00:27:35;52624.59;;;-145.69;100.00
1726;BME280;41776;48.260;8.928;2023-02-11T00:30:03;52614.72;;;-145.69;100.00
1726;BME280;41776;48.260;8.928;2023-02-11T00:32:30;52634.50;;;-145.69;100.00
1726;BME280;41776;48.260;8.928;2023-02-11T00:34:57;52650.34;;;-145.69;100.00
1726;BME280;41776;48.260;8.928;2023-02-11T00:37:23;52632.53;;;-145.69;100.00
1726;BME280;41776;48.260;8.928;2023-02-11T00:39:50;52616.69;;;-145.69;100.00
1726;BME280;41776;48.260;8.928;2023-02-11T00:42:16;52642.44;;;-145.69;100.00
1726;BME280;41776;48.260;8.928;2023-02-11T00:44:43;52602.81;;;-145.69;100.00
1726;BME280;41776;48.260;8.928;2023-02-11T00:47:10;52662.22;;;-145.69;100.00
1726;BME280;41776;48.260;8.928;2023-02-11T00:49:37;52598.84;;;-145.69;100.00
1726;BME280;41776;48.260;8.928;2023-02-11T00:52:04;52636.50;;;-145.69;100.00
1726;BME280;41776;48.260;8.928;2023-02-11T00:54:31;52666.19;;;-145.69;100.00
1726;BME280;41776;48.260;8.928;2023-02-11T00:56:57;52634.50;;;-145.69;100.00
1726;BME280;41776;48.260;8.928;2023-02-11T00:59:23;52598.84;;;-145.69;100.00
1726;BME280;41776;48.260;8.928;2023-02-11T01:01:50;52640.44;;;-145.69;100.00
1726;BME280;41776;48.260;8.928;2023-02-11T01:04:18;52608.75;;;-145.69;100.00
1726;BME280;41776;48.260;8.928;2023-02-11T01:06:44;52626.59;;;-145.69;100.00
1726;BME280;41776;48.260;8.928;2023-02-11T01:09:11;52634.50;;;-145.69;100.00
1726;BME280;41776;48.260;8.928;2023-02-11T01:11:37;52674.13;;;-145.69;100.00
1726;BME280;41776;48.260;8.928;2023-02-11T01:14:04;52646.41;;;-145.69;100.00
1726;BME280;41776;48.260;8.928;2023-02-11T01:16:30;52626.59;;;-145.69;100.00
1726;BME280;41776;48.260;8.928;2023-02-11T01:18:57;52628.56;;;-145.69;100.00
1726;BME280;41776;48.260;8.928;2023-02-11T01:21:25;52642.44;;;-145.69;100.00
1726;BME280;41776;48.260;8.928;2023-02-11T01:23:52;52662.22;;;-145.69;100.00
1726;BME280;41776;48.260;8.928;2023-02-11T01:26:18;52630.53;;;-145.69;100.00
1726;BME280;41776;48.260;8.928;2023-02-11T01:28:45;52632.53;;;-145.69;100.00
1726;BME280;41776;48.260;8.928;2023-02-11T01:31:11;52610.75;;;-145.69;100.00
1726;BME280;41776;48.260;8.928;2023-02-11T01:33:38;52602.81;;;-145.69;100.00
1726;BME280;41776;48.260;8.928;2023-02-11T01:36:05;52642.44;;;-145.69;100.00
1726;BME280;41776;48.260;8.928;2023-02-11T01:38:33;52642.44;;;-145.69;100.00
1726;BME280;41776;48.260;8.928;2023-02-11T01:41:02;52614.72;;;-145.69;100.00
1726;BME280;41776;48.260;8.928;2023-02-11T01:43:31;52638.47;;;-145.69;100.00
1726;BME280;41776;48.260;8.928;2023-02-11T01:46:01;52662.22;;;-145.69;100.00
1726;BME280;41776;48.260;8.928;2023-02-11T01:48:31;52634.50;;;-145.69;100.00
1726;BME280;41776;48.260;8.928;2023-02-11T01:51:02;52622.63;;;-145.69;100.00
1726;BME280;41776;48.260;8.928;2023-02-11T01:53:31;52628.56;;;-145.69;100.00
1726;BME280;41776;48.260;8.928;2023-02-11T01:56:19;52654.31;;;-145.69;100.00
1726;BME280;41776;48.260;8.928;2023-02-11T01:59:07;52654.31;;;-145.69;100.00
1726;BME280;41776;48.260;8.928;2023-02-11T02:01:36;52642.44;;;-145.69;100.00
1726;BME280;41776;48.260;8.928;2023-02-11T02:04:05;52634.50;;;-145.69;100.00
1726;BME280;41776;48.260;8.928;2023-02-11T02:06:34;52650.34;;;-145.69;100.00
1726;BME280;41776;48.260;8.928;2023-02-11T02:09:05;52622.63;;;-145.69;100.00
1726;BME280;41776;48.260;8.928;2023-02-11T02:11:34;52654.31;;;-145.69;100.00
1726;BME280;41776;48.260;8.928;2023-02-11T02:14:01;52666.19;;;-145.69;100.00
1726;BME280;41776;48.260;8.928;2023-02-11T02:16:31;52632.53;;;-145.69;100.00
1726;BME280;41776;48.260;8.928;2023-02-11T02:19:13;52642.44;;;-145.69;100.00
1726;BME280;41776;48.260;8.928;2023-02-11T02:21:58;52682.03;;;-145.69;100.00
1726;BME280;41776;48.260;8.928;2023-02-11T02:24:51;52618.66;;;-145.69;100.00
1726;BME280;41776;48.260;8.928;2023-02-11T02:27:36;52640.44;;;-145.69;100.00
1726;BME280;41776;48.260;8.928;2023-02-11T02:30:19;52640.44;;;-145.69;100.00
1726;BME280;41776;48.260;8.928;2023-02-11T02:33:03;52630.53;;;-145.69;100.00
1726;BME280;41776;48.260;8.928;2023-02-11T02:35:37;52614.72;;;-145.69;100.00
1726;BME280;41776;48.260;8.928;2023-02-11T02:38:09;52606.78;;;-145.69;100.00
1726;BME280;41776;48.260;8.928;2023-02-11T02:40:42;52622.63;;;-145.69;100.00
1726;BME280;41776;48.260;8.928;2023-02-11T02:43:10;52606.78;;;-145.69;100.00
1726;BME280;41776;48.260;8.928;2023-02-11T02:45:38;52640.44;;;-145.69;100.00
1726;BME280;41776;48.260;8.928;2023-02-11T02:48:06;52624.59;;;-145.69;100.00
1726;BME280;41776;48.260;8.928;2023-02-11T02:50:34;52642.44;;;-145.69;100.00
1726;BME280;41776;48.260;8.928;2023-02-11T02:53:11;52648.38;;;-145.69;100.00
1726;BME280;41776;48.260;8.928;2023-02-11T02:55:53;52622.63;;;-145.69;100.00
1726;BME280;41776;48.260;8.928;2023-02-11T02:58:54;52610.75;;;-145.69;100.00
1726;BME280;41776;48.260;8.928;2023-02-11T03:01:34;52632.53;;;-145.69;100.00
1726;BME280;41776;48.260;8.928;2023-02-11T03:04:11;52634.50;;;-145.69;100.00
1726;BME280;41776;48.260;8.928;2023-02-11T03:06:47;52612.72;;;-145.69;100.00
1726;BME280;41776;48.260;8.928;2023-02-11T03:09:22;52630.53;;;-145.69;100.00
1726;BME280;41776;48.260;8.928;2023-02-11T03:11:49;52658.28;;;-145.69;100.00
1726;BME280;41776;48.260;8.928;2023-02-11T03:14:17;52622.63;;;-145.69;100.00
1726;BME280;41776;48.260;8.928;2023-02-11T03:16:45;52634.50;;;-145.69;100.00
1726;BME280;41776;48.260;8.928;2023-02-11T03:19:18;52614.72;;;-145.69;100.00
1726;BME280;41776;48.260;8.928;2023-02-11T03:21:48;52626.59;;;-145.69;100.00
1726;BME280;41776;48.260;8.928;2023-02-11T03:24:19;52646.41;;;-145.69;100.00
1726;BME280;41776;48.260;8.928;2023-02-11T03:26:49;52618.66;;;-145.69;100.00
1726;BME280;41776;48.260;8.928;2023-02-11T03:29:23;52644.41;;;-145.69;100.00
1726;BME280;41776;48.260;8.928;2023-02-11T03:31:58;52656.28;;;-145.69;100.00
1726;BME280;41776;48.260;8.928;2023-02-11T03:34:29;52636.50;;;-145.69;100.00
1726;BME280;41776;48.260;8.928;2023-02-11T03:37:02;52642.44;;;-145.69;100.00
1726;BME280;41776;48.260;8.928;2023-02-11T03:39:35;52658.28;;;-145.69;100.00
1726;BME280;41776;48.260;8.928;2023-02-11T03:42:05;52612.72;;;-145.69;100.00
1726;BME280;41776;48.260;8.928;2023-02-11T03:44:35;52626.59;;;-145.69;100.00
1726;BME280;41776;48.260;8.928;2023-02-11T03:47:04;52644.41;;;-145.69;100.00
1726;BME280;41776;48.260;8.928;2023-02-11T03:49:35;52616.69;;;-145.69;100.00
1726;BME280;41776;48.260;8.928;2023-02-11T03:52:05;52622.63;;;-145.69;100.00
1726;BME280;41776;48.260;8.928;2023-02-11T03:54:37;52668.19;;;-145.69;100.00
1726;BME280;41776;48.260;8.928;2023-02-11T03:57:05;52660.25;;;-145.69;100.00
1726;BME280;41776;48.260;8.928;2023-02-11T03:59:48;52644.41;;;-145.69;100.00
1726;BME280;41776;48.260;8.928;2023-02-11T04:02:15;52650.34;;;-145.69;100.00
1726;BME280;41776;48.260;8.928;2023-02-11T04:04:43;52636.50;;;-145.69;100.00
1726;BME280;41776;48.260;8.928;2023-02-11T04:07:10;52636.50;;;-145.69;100.00
1726;BME280;41776;48.260;8.928;2023-02-11T04:09:37;52626.59;;;-145.69;100.00
1726;BME280;41776;48.260;8.928;2023-02-11T04:12:03;52630.53;;;-145.69;100.00
1726;BME280;41776;48.260;8.928;2023-02-11T04:14:30;52628.56;;;-145.69;100.00
1726;BME280;41776;48.260;8.928;2023-02-11T04:16:57;52626.59;;;-145.69;100.00
1726;BME280;41776;48.260;8.928;2023-02-11T04:19:23;52634.50;;;-145.69;100.00
1726;BME280;41776;48.260;8.928;2023-02-11T04:21:51;52636.50;;;-145.69;100.00
1726;BME280;41776;48.260;8.928;2023-02-11T04:24:17;52648.38;;;-145.69;100.00
1726;BME280;41776;48.260;8.928;2023-02-11T04:26:44;52642.44;;;-145.69;100.00
1726;BME280;41776;48.260;8.928;2023-02-11T04:29:10;52654.31;;;-145.69;100.00
1726;BME280;41776;48.260;8.928;2023-02-11T04:31:37;52654.31;;;-145.69;100.00
1726;BME280;41776;48.260;8.928;2023-02-11T04:34:03;52656.28;;;-145.69;100.00
1726;BME280;41776;48.260;8.928;2023-02-11T04:36:30;52622.63;;;-145.69;100.00
1726;BME280;41776;48.260;8.928;2023-02-11T04:38:57;52622.63;;;-145.69;100.00
1726;BME280;41776;48.260;8.928;2023-02-11T04:41:24;52636.50;;;-145.69;100.00
1726;BME280;41776;48.260;8.928;2023-02-11T04:43:50;52650.34;;;-145.69;100.00
1726;BME280;41776;48.260;8.928;2023-02-11T04:46:17;52650.34;;;-145.69;100.00
1726;BME280;41776;48.260;8.928;2023-02-11T04:48:43;52636.50;;;-145.69;100.00
1726;BME280;41776;48.260;8.928;2023-02-11T04:51:10;52674.13;;;-145.69;100.00
1726;BME280;41776;48.260;8.928;2023-02-11T04:53:37;52628.56;;;-145.69;100.00
1726;BME280;41776;48.260;8.928;2023-02-11T04:56:05;52628.56;;;-145.69;100.00
1726;BME280;41776;48.260;8.928;2023-02-11T04:58:32;52632.53;;;-145.69;100.00
1726;BME280;41776;48.260;8.928;2023-02-11T05:01:04;52638.47;;;-145.69;100.00
1726;BME280;41776;48.260;8.928;2023-02-11T05:03:33;52691.94;;;-145.69;100.00
1726;BME280;41776;48.260;8.928;2023-02-11T05:05:59;52626.59;;;-145.69;100.00
1726;BME280;41776;48.260;8.928;2023-02-11T05:08:26;52650.34;;;-145.69;100.00
1726;BME280;41776;48.260;8.928;2023-02-11T05:10:52;52636.50;;;-145.69;100.00
1726;BME280;41776;48.260;8.928;2023-02-11T05:13:20;52678.09;;;-145.69;100.00
1726;BME280;41776;48.260;8.928;2023-02-11T05:15:47;52654.31;;;-145.69;100.00
1726;BME280;41776;48.260;8.928;2023-02-11T05:18:14;52642.44;;;-145.69;100.00
1726;BME280;41776;48.260;8.928;2023-02-11T05:20:40;52636.50;;;-145.69;100.00
1726;BME280;41776;48.260;8.928;2023-02-11T05:23:07;52634.50;;;-145.69;100.00
1726;BME280;41776;48.260;8.928;2023-02-11T05:25:33;52622.63;;;-145.69;100.00
1726;BME280;41776;48.260;8.928;2023-02-11T05:28:00;52626.59;;;-145.69;100.00
1726;BME280;41776;48.260;8.928;2023-02-11T05:30:31;52620.66;;;-145.69;100.00
1726;BME280;41776;48.260;8.928;2023-02-11T05:32:58;52630.53;;;-145.69;100.00
1726;BME280;41776;48.260;8.928;2023-02-11T05:35:24;52650.34;;;-145.69;100.00
1726;BME280;41776;48.260;8.928;2023-02-11T05:37:53;52632.53;;;-145.69;100.00
1726;BME280;41776;48.260;8.928;2023-02-11T05:40:19;52684.03;;;-145.69;100.00
1726;BME280;41776;48.260;8.928;2023-02-11T05:42:46;52638.47;;;-145.69;100.00
1726;BME280;41776;48.260;8.928;2023-02-11T05:45:15;52618.66;;;-145.69;100.00
1726;BME280;41776;48.260;8.928;2023-02-11T05:47:46;52608.75;;;-145.69;100.00
1726;BME280;41776;48.260;8.928;2023-02-11T05:50:14;52636.50;;;-145.69;100.00
1726;BME280;41776;48.260;8.928;2023-02-11T05:52:41;52638.47;;;-145.69;100.00
1726;BME280;41776;48.260;8.928;2023-02-11T05:55:10;52614.72;;;-145.69;100.00
1726;BME280;41776;48.260;8.928;2023-02-11T05:57:36;52642.44;;;-145.69;100.00
1726;BME280;41776;48.260;8.928;2023-02-11T06:00:04;52654.31;;;-145.69;100.00
1726;BME280;41776;48.260;8.928;2023-02-11T06:02:31;52632.53;;;-145.69;100.00
1726;BME280;41776;48.260;8.928;2023-02-11T06:05:02;52662.22;;;-145.69;100.00
1726;BME280;41776;48.260;8.928;2023-02-11T06:07:33;52650.34;;;-145.69;100.00
1726;BME280;41776;48.260;8.928;2023-02-11T06:10:01;52596.88;;;-145.69;100.00
1726;BME280;41776;48.260;8.928;2023-02-11T06:12:28;52648.38;;;-145.69;100.00
1726;BME280;41776;48.260;8.928;2023-02-11T06:14:58;52622.63;;;-145.69;100.00
1726;BME280;41776;48.260;8.928;2023-02-11T06:17:24;52598.84;;;-145.69;100.00
1726;BME280;41776;48.260;8.928;2023-02-11T06:19:54;52616.69;;;-145.69;100.00
1726;BME280;41776;48.260;8.928;2023-02-11T06:22:28;52654.31;;;-145.69;100.00
1726;BME280;41776;48.260;8.928;2023-02-11T06:24:59;52648.38;;;-145.69;100.00
1726;BME280;41776;48.260;8.928;2023-02-11T06:27:30;52585.00;;;-145.69;100.00
1726;BME280;41776;48.260;8.928;2023-02-11T06:29:57;52585.00;;;-145.69;100.00
1726;BME280;41776;48.260;8.928;2023-02-11T06:32:23;52606.78;;;-145.69;100.00
1726;BME280;41776;48.260;8.928;2023-02-11T06:34:50;52606.78;;;-145.69;100.00
1726;BME280;41776;48.260;8.928;2023-02-11T06:37:16;52622.63;;;-145.69;100.00
1726;BME280;41776;48.260;8.928;2023-02-11T06:39:47;52604.81;;;-145.69;100.00
1726;BME280;41776;48.260;8.928;2023-02-11T06:42:14;52658.28;;;-145.69;100.00
1726;BME280;41776;48.260;8.928;2023-02-11T06:44:49;52626.59;;;-145.69;100.00
1726;BME280;41776;48.260;8.928;2023-02-11T06:47:15;52634.50;;;-145.69;100.00
1726;BME280;41776;48.260;8.928;2023-02-11T06:49:42;52610.75;;;-145.69;100.00
1726;BME280;41776;48.260;8.928;2023-02-11T06:52:08;52620.66;;;-145.69;100.00
1726;BME280;41776;48.260;8.928;2023-02-11T06:54:35;52636.50;;;-145.69;100.00
1726;BME280;41776;48.260;8.928;2023-02-11T06:57:03;52596.88;;;-145.69;100.00
1726;BME280;41776;48.260;8.928;2023-02-11T06:59:32;52664.22;;;-145.69;100.00
1726;BME280;41776;48.260;8.928;2023-02-11T07:01:59;52606.78;;;-145.69;100.00
1726;BME280;41776;48.260;8.928;2023-02-11T07:04:25;52634.50;;;-145.69;100.00
1726;BME280;41776;48.260;8.928;2023-02-11T07:06:52;52571.13;;;-145.69;100.00
1726;BME280;41776;48.260;8.928;2023-02-11T07:09:25;52624.59;;;-145.69;100.00
1726;BME280;41776;48.260;8.928;2023-02-11T07:11:51;52618.66;;;-145.69;100.00
1726;BME280;41776;48.260;8.928;2023-02-11T07:14:19;52610.75;;;-145.69;100.00
1726;BME280;41776;48.260;8.928;2023-02-11T07:16:45;52604.81;;;-145.69;100.00
1726;BME280;41776;48.260;8.928;2023-02-11T07:19:15;52646.41;;;-145.69;100.00
1726;BME280;41776;48.260;8.928;2023-02-11T07:21:43;52666.19;;;-145.69;100.00
1726;BME280;41776;48.260;8.928;2023-02-11T07:24:10;52624.59;;;-145.69;100.00
1726;BME280;41776;48.260;8.928;2023-02-11T07:26:36;52656.28;;;-145.69;100.00
1726;BME280;41776;48.260;8.928;2023-02-11T07:29:05;52590.94;;;-145.69;100.00
1726;BME280;41776;48.260;8.928;2023-02-11T07:31:33;52586.97;;;-145.69;100.00
1726;BME280;41776;48.260;8.928;2023-02-11T07:34:03;52596.88;;;-145.69;100.00
1726;BME280;41776;48.260;8.928;2023-02-11T07:36:32;52646.41;;;-145.69;100.00
1726;BME280;41776;48.260;8.928;2023-02-11T07:38:59;52602.81;;;-145.69;100.00
1726;BME280;41776;48.260;8.928;2023-02-11T07:41:26;52642.44;;;-145.69;100.00
1726;BME280;41776;48.260;8.928;2023-02-11T07:43:52;52614.72;;;-145.69;100.00
1726;BME280;41776;48.260;8.928;2023-02-11T07:46:20;52596.88;;;-145.69;100.00
1726;BME280;41776;48.260;8.928;2023-02-11T07:48:53;52598.84;;;-145.69;100.00
1726;BME280;41776;48.260;8.928;2023-02-11T07:51:21;52598.84;;;-145.69;100.00
1726;BME280;41776;48.260;8.928;2023-02-11T07:53:49;52622.63;;;-145.69;100.00
1726;BME280;41776;48.260;8.928;2023-02-11T07:56:17;52616.69;;;-145.69;100.00
1726;BME280;41776;48.260;8.928;2023-02-11T07:58:46;52624.59;;;-145.69;100.00
1726;BME280;41776;48.260;8.928;2023-02-11T08:01:18;52606.78;;;-145.69;100.00
1726;BME280;41776;48.260;8.928;2023-02-11T08:03:46;52626.59;;;-145.69;100.00
1726;BME280;41776;48.260;8.928;2023-02-11T08:06:17;52590.94;;;-145.69;100.00
1726;BME280;41776;48.260;8.928;2023-02-11T08:08:44;52610.75;;;-145.69;100.00
1726;BME280;41776;48.260;8.928;2023-02-11T08:11:15;52569.16;;;-145.69;100.00
1726;BME280;41776;48.260;8.928;2023-02-11T08:13:42;52604.81;;;-145.69;100.00
1726;BME280;41776;48.260;8.928;2023-02-11T08:16:17;52606.78;;;-145.69;100.00
1726;BME280;41776;48.260;8.928;2023-02-11T08:18:51;52573.13;;;-145.69;100.00
1726;BME280;41776;48.260;8.928;2023-02-11T08:21:21;52579.06;;;-145.69;100.00
1726;BME280;41776;48.260;8.928;2023-02-11T08:23:47;52577.06;;;-145.69;100.00
1726;BME280;41776;48.260;8.928;2023-02-11T08:26:17;52594.91;;;-145.69;100.00
1726;BME280;41776;48.260;8.928;2023-02-11T08:28:45;52626.59;;;-145.69;100.00
1726;BME280;41776;48.260;8.928;2023-02-11T08:31:16;52583.00;;;-145.69;100.00
1726;BME280;41776;48.260;8.928;2023-02-11T08:33:44;52610.75;;;-145.69;100.00
1726;BME280;41776;48.260;8.928;2023-02-11T08:36:12;52581.03;;;-145.69;100.00
1726;BME280;41776;48.260;8.928;2023-02-11T08:38:41;52600.84;;;-145.69;100.00
1726;BME280;41776;48.260;8.928;2023-02-11T08:41:10;52559.25;;;-145.69;100.00
1726;BME280;41776;48.260;8.928;2023-02-11T08:43:39;52571.13;;;-145.69;100.00
1726;BME280;41776;48.260;8.928;2023-02-11T08:46:07;52573.13;;;-145.69;100.00
1726;BME280;41776;48.260;8.928;2023-02-11T08:48:34;52567.16;;;-145.69;100.00
1726;BME280;41776;48.260;8.928;2023-02-11T08:51:07;52581.03;;;-145.69;100.00
1726;BME280;41776;48.260;8.928;2023-02-11T08:53:34;52571.13;;;-145.69;100.00
1726;BME280;41776;48.260;8.928;2023-02-11T08:56:05;52531.53;;;-145.69;100.00
1726;BME280;41776;48.260;8.928;2023-02-11T08:58:39;52590.94;;;-145.69;100.00
1726;BME280;41776;48.260;8.928;2023-02-11T09:01:08;52579.06;;;-145.69;100.00
1726;BME280;41776;48.260;8.928;2023-02-11T09:03:40;52579.06;;;-145.69;100.00
1726;BME280;41776;48.260;8.928;2023-02-11T09:06:11;52583.00;;;-145.69;100.00
1726;BME280;41776;48.260;8.928;2023-02-11T09:08:41;52569.16;;;-145.69;100.00
1726;BME280;41776;48.260;8.928;2023-02-11T09:11:10;52586.97;;;-145.69;100.00
1726;BME280;41776;48.260;8.928;2023-02-11T09:13:39;52594.91;;;-145.69;100.00
1726;BME280;41776;48.260;8.928;2023-02-11T09:16:06;52579.06;;;-145.69;100.00
1726;BME280;41776;48.260;8.928;2023-02-11T09:18:33;52551.31;;;-145.69;100.00
1726;BME280;41776;48.260;8.928;2023-02-11T09:21:07;52592.91;;;-145.69;100.00
1726;BME280;41776;48.260;8.928;2023-02-11T09:23:34;52563.22;;;-145.69;100.00
1726;BME280;41776;48.260;8.928;2023-02-11T09:26:06;52543.41;;;-145.69;100.00
1726;BME280;41776;48.260;8.928;2023-02-11T09:28:35;52598.84;;;-145.69;100.00
1726;BME280;41776;48.260;8.928;2023-02-11T09:31:04;52600.84;;;-145.69;100.00
1726;BME280;41776;48.260;8.928;2023-02-11T09:33:31;52573.13;;;-145.69;100.00
1726;BME280;41776;48.260;8.928;2023-02-11T09:36:02;52553.31;;;-145.69;99.33
1726;BME280;41776;48.260;8.928;2023-02-11T09:38:31;52541.44;;;-145.69;95.46
1726;BME280;41776;48.260;8.928;2023-02-11T09:40:58;52557.28;;;-145.69;82.07
1726;BME280;41776;48.260;8.928;2023-02-11T09:43:32;52541.44;;;-145.69;80.39
1726;BME280;41776;48.260;8.928;2023-02-11T09:46:05;52575.09;;;-145.69;72.07
1726;BME280;41776;48.260;8.928;2023-02-11T09:48:38;52569.16;;;-145.69;74.64
1726;BME280;41776;48.260;8.928;2023-02-11T09:51:16;52579.06;;;-145.69;81.04
1726;BME280;41776;48.260;8.928;2023-02-11T09:53:44;52571.13;;;-145.69;78.42
1726;BME280;41776;48.260;8.928;2023-02-11T09:56:17;52559.25;;;-145.69;79.21
1726;BME280;41776;48.260;8.928;2023-02-11T09:58:44;52563.22;;;-145.69;79.08
1726;BME280;41776;48.260;8.928;2023-02-11T10:01:27;52590.94;;;-145.69;76.12
1726;BME280;41776;48.260;8.928;2023-02-11T10:04:00;52551.31;;;-145.69;83.89
1726;BME280;41776;48.260;8.928;2023-02-11T10:06:39;52559.25;;;-145.69;83.31
1726;BME280;41776;48.260;8.928;2023-02-11T10:09:27;52555.28;;;-145.69;81.81
1726;BME280;41776;48.260;8.928;2023-02-11T10:12:08;52586.97;;;-145.69;87.62
1726;BME280;41776;48.260;8.928;2023-02-11T10:14:59;52571.13;;;-145.69;86.25
1726;BME280;41776;48.260;8.928;2023-02-11T10:17:34;52569.16;;;-145.69;85.96
1726;BME280;41776;48.260;8.928;2023-02-11T10:20:12;52575.09;;;-145.69;84.30
1726;BME280;41776;48.260;8.928;2023-02-11T10:22:42;52547.38;;;-145.69;83.97
1726;BME280;41776;48.260;8.928;2023-02-11T10:25:18;52539.44;;;-145.69;78.55
1726;BME280;41776;48.260;8.928;2023-02-11T10:27:45;52549.34;;;-145.69;72.34
1726;BME280;41776;48.260;8.928;2023-02-11T10:30:21;52575.09;;;-145.69;69.10
1726;BME280;41776;48.260;8.928;2023-02-11T10:32:53;52527.56;;;-145.69;79.76
1726;BME280;41776;48.260;8.928;2023-02-11T10:35:23;52553.31;;;-145.69;74.38
1726;BME280;41776;48.260;8.928;2023-02-11T10:37:52;52563.22;;;-145.69;69.46
1726;BME280;41776;48.260;8.928;2023-02-11T10:40:21;52537.47;;;-145.69;65.56
1726;BME280;41776;48.260;8.928;2023-02-11T10:42:52;52579.06;;;-145.69;73.30
1726;BME280;41776;48.260;8.928;2023-02-11T10:45:26;52561.22;;;-145.69;68.41
1726;BME280;41776;48.260;8.928;2023-02-11T10:47:55;52527.56;;;-145.69;71.35
1726;BME280;41776;48.260;8.928;2023-02-11T10:50:24;52521.63;;;-145.69;74.21
1726;BME280;41776;48.260;8.928;2023-02-11T10:53:11;52551.31;;;-145.69;74.44
1726;BME280;41776;48.260;8.928;2023-02-11T10:55:48;52519.63;;;-145.69;72.54
1726;BME280;41776;48.260;8.928;2023-02-11T10:58:24;52549.34;;;-145.69;72.02
1726;BME280;41776;48.260;8.928;2023-02-11T11:00:52;52559.25;;;-145.69;71.34
1726;BME280;41776;48.260;8.928;2023-02-11T11:03:23;52507.75;;;-145.69;68.59
1726;BME280;41776;48.260;8.928;2023-02-11T11:05:52;52535.47;;;-145.69;68.99
1726;BME280;41776;48.260;8.928;2023-02-11T11:08:20;52525.59;;;-145.69;68.87
1726;BME280;41776;48.260;8.928;2023-02-11T11:13:30;52539.44;;;-145.69;73.45
1726;BME280;41776;48.260;8.928;2023-02-11T11:16:24;52531.53;;;-145.69;72.94
1726;BME280;41776;48.260;8.928;2023-02-11T11:19:13;52513.69;;;-145.69;71.45
1726;BME280;41776;48.260;8.928;2023-02-11T11:21:42;52537.47;;;-145.69;72.16
1726;BME280;41776;48.260;8.928;2023-02-11T11:24:15;52531.53;;;-145.69;73.22
1726;BME280;41776;48.260;8.928;2023-02-11T11:26:44;52525.59;;;-145.69;74.40
1726;BME280;41776;48.260;8.928;2023-02-11T11:29:29;52527.56;;;-145.69;69.68
1726;BME280;41776;48.260;8.928;2023-02-11T11:32:01;52519.63;;;-145.69;70.77
1726;BME280;41776;48.260;8.928;2023-02-11T11:34:32;52531.53;;;-145.69;71.25
1726;BME280;41776;48.260;8.928;2023-02-11T11:37:01;52525.59;;;-145.69;74.23
1726;BME280;41776;48.260;8.928;2023-02-11T11:39:35;52555.28;;;-145.69;72.56
1726;BME280;41776;48.260;8.928;2023-02-11T11:42:04;52517.66;;;-145.69;74.30
1726;BME280;41776;48.260;8.928;2023-02-11T11:44:32;52511.72;;;-145.69;72.88
1726;BME280;41776;48.260;8.928;2023-02-11T11:47:24;52495.88;;;-145.69;79.05
1726;BME280;41776;48.260;8.928;2023-02-11T11:50:11;52519.63;;;-145.69;74.26
1726;BME280;41776;48.260;8.928;2023-02-11T11:52:45;52537.47;;;-145.69;70.41
1726;BME280;41776;48.260;8.928;2023-02-11T11:55:17;52495.88;;;-145.69;71.10
1726;BME280;41776;48.260;8.928;2023-02-11T11:57:46;52513.69;;;-145.69;72.79
1726;BME280;41776;48.260;8.928;2023-02-11T12:00:16;52541.44;;;-145.69;72.46
1726;BME280;41776;48.260;8.928;2023-02-11T12:05:53;52519.63;;;-145.69;67.18
1726;BME280;41776;48.260;8.928;2023-02-11T12:08:32;52497.84;;;-145.69;63.54
1726;BME280;41776;48.260;8.928;2023-02-11T12:11:10;52503.81;;;-145.69;59.74
1726;BME280;41776;48.260;8.928;2023-02-11T12:13:48;52499.84;;;-145.69;59.80
1726;BME280;41776;48.260;8.928;2023-02-11T12:16:27;52507.75;;;-145.69;60.91
1726;BME280;41776;48.260;8.928;2023-02-11T12:19:22;52499.84;;;-145.69;59.51
1726;BME280;41776;48.260;8.928;2023-02-11T12:22:08;52523.59;;;-145.69;62.64
1726;BME280;41776;48.260;8.928;2023-02-11T12:24:52;52543.41;;;-145.69;58.42
1726;BME280;41776;48.260;8.928;2023-02-11T12:27:32;52503.81;;;-145.69;61.92
1726;BME280;41776;48.260;8.928;2023-02-11T12:30:15;52501.81;;;-145.69;61.54
1726;BME280;41776;48.260;8.928;2023-02-11T12:32:51;52499.84;;;-145.69;61.42
1726;BME280;41776;48.260;8.928;2023-02-11T12:35:30;52529.53;;;-145.69;61.34
1726;BME280;41776;48.260;8.928;2023-02-11T12:38:15;52543.41;;;-145.69;56.40
1726;BME280;41776;48.260;8.928;2023-02-11T12:40:54;52533.50;;;-145.69;59.58
1726;BME280;41776;48.260;8.928;2023-02-11T12:43:32;52499.84;;;-145.69;53.90
1726;BME280;41776;48.260;8.928;2023-02-11T12:46:31;52501.81;;;-145.69;53.14
1726;BME280;41776;48.260;8.928;2023-02-11T12:49:13;52480.03;;;-145.69;45.41
1726;BME280;41776;48.260;8.928;2023-02-11T12:51:54;52485.97;;;-145.69;48.77
1726;BME280;41776;48.260;8.928;2023-02-11T12:54:29;52485.97;;;-145.69;46.71
1726;BME280;41776;48.260;8.928;2023-02-11T12:57:05;52487.97;;;-145.69;46.69
1726;BME280;41776;48.260;8.928;2023-02-11T12:59:40;52511.72;;;-145.69;48.22
1726;BME280;41776;48.260;8.928;2023-02-11T13:02:17;52484.00;;;-145.69;45.94
1726;BME280;41776;48.260;8.928;2023-02-11T13:04:49;52493.91;;;-145.69;45.57
1726;BME280;41776;48.260;8.928;2023-02-11T13:07:22;52482.00;;;-145.69;45.15